createdAt,value
2023-04-08T00:02:08.708Z,12.97
2023-04-08T00:04:35.422Z,12.03
2023-04-08T00:07:01.971Z,11.60
2023-04-08T00:09:28.446Z,12.40
2023-04-08T00:11:56.822Z,12.00
2023-04-08T00:14:23.474Z,11.97
2023-04-08T00:16:50.083Z,11.83
2023-04-08T00:19:16.905Z,11.70
2023-04-08T00:21:43.451Z,13.23
2023-04-08T00:24:10.757Z,13.93
2023-04-08T00:26:37.780Z,12.83
2023-04-08T00:29:04.779Z,16.97
2023-04-08T00:31:34.149Z,13.03
2023-04-08T00:34:00.817Z,13.60
2023-04-08T00:36:37.547Z,12.77
2023-04-08T00:39:22.241Z,13.67
2023-04-08T00:41:51.374Z,14.37
2023-04-08T00:44:17.992Z,13.10
2023-04-08T00:46:44.695Z,14.17
2023-04-08T00:49:11.452Z,14.07
2023-04-08T00:51:38.135Z,13.80
2023-04-08T00:54:05.669Z,14.20
2023-04-08T00:56:32.869Z,14.10
2023-04-08T00:59:00.458Z,16.93
2023-04-08T01:01:54.039Z,15.23
2023-04-08T01:04:40.972Z,15.17
2023-04-08T01:07:15.804Z,13.00
2023-04-08T01:09:47.582Z,13.97
2023-04-08T01:12:35.886Z,13.87
2023-04-08T01:15:07.367Z,14.40
2023-04-08T01:17:34.957Z,15.10
2023-04-08T01:20:04.393Z,13.13
2023-04-08T01:23:02.176Z,14.33
2023-04-08T01:25:34.454Z,14.17
2023-04-08T01:28:04.099Z,15.73
2023-04-08T01:30:31.312Z,13.93
2023-04-08T01:32:58.403Z,13.07
2023-04-08T01:35:25.379Z,12.37
2023-04-08T01:37:52.399Z,13.03
2023-04-08T01:40:19.519Z,13.33
2023-04-08T01:42:47.890Z,12.63
2023-04-08T01:45:15.835Z,14.97
2023-04-08T01:47:44.932Z,14.03
2023-04-08T01:50:12.544Z,14.57
2023-04-08T01:52:40.449Z,13.23
2023-04-08T01:55:07.355Z,13.47
2023-04-08T01:57:37.228Z,15.03
2023-04-08T02:00:07.769Z,13.63
2023-04-08T02:02:36.860Z,13.13
2023-04-08T02:05:03.867Z,13.73
2023-04-08T02:07:30.447Z,12.73
2023-04-08T02:09:57.208Z,13.80
2023-04-08T02:12:23.852Z,13.83
2023-04-08T02:14:50.567Z,13.87
2023-04-08T02:17:27.112Z,14.10
2023-04-08T02:20:01.474Z,12.57
2023-04-08T02:22:38.994Z,11.00
2023-04-08T02:25:09.050Z,12.10
2023-04-08T02:27:36.056Z,12.00
2023-04-08T02:30:05.174Z,10.97
2023-04-08T02:32:33.310Z,10.77
2023-04-08T02:35:01.575Z,14.53
2023-04-08T02:37:32.345Z,13.37
2023-04-08T02:39:59.442Z,14.40
2023-04-08T02:42:26.256Z,11.87
2023-04-08T02:44:52.843Z,13.50
2023-04-08T02:47:19.354Z,13.17
2023-04-08T02:49:46.018Z,13.27
2023-04-08T02:52:12.578Z,14.43
2023-04-08T02:54:39.085Z,12.83
2023-04-08T02:57:05.544Z,13.33
2023-04-08T02:59:31.997Z,14.07
2023-04-08T03:01:58.588Z,14.77
2023-04-08T03:04:25.403Z,14.47
2023-04-08T03:06:51.867Z,14.13
2023-04-08T03:09:18.321Z,14.23
2023-04-08T03:11:45.009Z,14.27
2023-04-08T03:14:11.642Z,14.90
2023-04-08T03:16:38.131Z,16.83
2023-04-08T03:19:04.645Z,18.63
2023-04-08T03:21:31.864Z,19.00
2023-04-08T03:23:58.345Z,17.93
2023-04-08T03:26:27.114Z,17.73
2023-04-08T03:28:53.661Z,14.73
2023-04-08T03:31:21.360Z,16.00
2023-04-08T03:33:47.894Z,19.47
2023-04-08T03:36:14.416Z,17.17
2023-04-08T03:38:40.937Z,17.50
2023-04-08T03:41:07.467Z,17.30
2023-04-08T03:43:35.143Z,17.33
2023-04-08T03:46:02.757Z,17.70
2023-04-08T03:48:29.224Z,18.33
2023-04-08T03:50:55.714Z,19.07
2023-04-08T03:53:22.167Z,20.70
2023-04-08T03:55:50.916Z,19.70
2023-04-08T03:58:17.396Z,22.07
2023-04-08T04:00:43.849Z,25.00
2023-04-08T04:03:13.148Z,22.07
2023-04-08T04:05:40.344Z,25.53
2023-04-08T04:08:07.341Z,24.47
2023-04-08T04:10:33.825Z,24.77
2023-04-08T04:13:00.480Z,26.93
2023-04-08T04:15:27.057Z,28.20
2023-04-08T04:17:53.664Z,30.70
2023-04-08T04:20:21.801Z,27.80
2023-04-08T04:22:48.349Z,28.63
2023-04-08T04:25:14.901Z,27.67
2023-04-08T04:27:41.346Z,25.47
2023-04-08T04:30:09.475Z,25.27
2023-04-08T04:32:35.994Z,23.30
2023-04-08T04:35:02.578Z,24.60
2023-04-08T04:37:29.016Z,24.27
2023-04-08T04:39:55.490Z,25.63
2023-04-08T04:42:21.960Z,26.03
2023-04-08T04:44:48.455Z,22.83
2023-04-08T04:47:16.115Z,27.30
2023-04-08T04:49:42.941Z,24.10
2023-04-08T04:52:09.427Z,25.17
2023-04-08T04:54:36.332Z,24.13
2023-04-08T04:57:02.767Z,25.87
2023-04-08T04:59:29.324Z,22.57
2023-04-08T05:01:57.815Z,24.27
2023-04-08T05:04:25.381Z,22.37
2023-04-08T05:06:52.109Z,24.70
2023-04-08T05:09:18.584Z,26.80
2023-04-08T05:11:45.279Z,24.17
2023-04-08T05:14:11.793Z,23.73
2023-04-08T05:16:39.247Z,21.73
2023-04-08T05:19:05.906Z,26.13
2023-04-08T05:21:32.714Z,26.90
2023-04-08T05:23:59.234Z,24.87
2023-04-08T05:26:26.368Z,22.90
2023-04-08T05:28:52.944Z,26.43
2023-04-08T05:31:20.641Z,21.37
2023-04-08T05:33:47.753Z,24.40
2023-04-08T05:36:14.644Z,27.33
2023-04-08T05:38:43.260Z,24.97
2023-04-08T05:41:09.911Z,24.07
2023-04-08T05:43:36.867Z,29.53
2023-04-08T05:46:08.180Z,27.73
2023-04-08T05:48:34.844Z,25.03
2023-04-08T05:51:01.335Z,28.60
2023-04-08T05:53:27.813Z,28.27
2023-04-08T05:55:54.324Z,28.07
2023-04-08T05:58:20.827Z,29.30
2023-04-08T06:00:47.332Z,30.57
2023-04-08T06:03:14.119Z,22.60
2023-04-08T06:05:41.037Z,24.63
2023-04-08T06:08:07.472Z,20.87
2023-04-08T06:10:33.966Z,21.63
2023-04-08T06:13:00.548Z,20.50
2023-04-08T06:15:27.982Z,23.80
2023-04-08T06:17:54.520Z,25.93
2023-04-08T06:20:21.117Z,23.33
2023-04-08T06:22:47.540Z,25.77
2023-04-08T06:25:13.990Z,24.27
2023-04-08T06:27:40.422Z,28.40
2023-04-08T06:30:07.712Z,26.37
2023-04-08T06:32:34.256Z,23.97
2023-04-08T06:35:01.110Z,23.53
2023-04-08T06:37:27.567Z,24.03
2023-04-08T06:39:53.999Z,25.33
2023-04-08T06:42:22.557Z,25.90
2023-04-08T06:44:49.526Z,23.77
2023-04-08T06:47:17.114Z,24.63
2023-04-08T06:49:43.636Z,26.27
2023-04-08T06:52:10.116Z,23.87
2023-04-08T06:54:36.559Z,26.30
2023-04-08T06:57:04.246Z,26.50
2023-04-08T06:59:30.972Z,25.47
2023-04-08T07:01:57.539Z,27.80
2023-04-08T07:04:24.218Z,26.03
2023-04-08T07:06:51.099Z,30.20
2023-04-08T07:09:17.565Z,26.27
2023-04-08T07:11:44.173Z,25.53
2023-04-08T07:14:12.019Z,26.17
2023-04-08T07:16:38.541Z,24.07
2023-04-08T07:19:04.998Z,27.00
2023-04-08T07:21:31.851Z,24.37
2023-04-08T07:23:58.298Z,24.33
2023-04-08T07:26:24.745Z,26.03
2023-04-08T07:28:51.945Z,22.27
2023-04-08T07:31:18.732Z,26.93
2023-04-08T07:33:45.780Z,24.23
2023-04-08T07:36:13.325Z,25.73
2023-04-08T07:38:39.986Z,21.87
2023-04-08T07:41:06.531Z,19.73
2023-04-08T07:43:40.089Z,29.73
2023-04-08T07:46:07.071Z,24.97
2023-04-08T07:48:34.087Z,35.30
2023-04-08T07:51:10.093Z,41.50
2023-04-08T07:53:37.774Z,24.60
2023-04-08T07:56:11.569Z,33.63
2023-04-08T07:58:38.309Z,31.90
2023-04-08T08:01:05.027Z,21.50
2023-04-08T08:03:33.850Z,21.07
2023-04-08T08:06:00.805Z,18.30
2023-04-08T08:08:27.280Z,18.53
2023-04-08T08:10:53.794Z,19.73
2023-04-08T08:13:22.140Z,18.07
2023-04-08T08:15:52.646Z,16.13
2023-04-08T08:18:19.482Z,22.43
2023-04-08T08:20:46.071Z,15.83
2023-04-08T08:23:12.578Z,18.83
2023-04-08T08:25:39.066Z,16.63
2023-04-08T08:28:05.565Z,17.83
2023-04-08T08:30:34.053Z,19.80
2023-04-08T08:33:01.129Z,22.07
2023-04-08T08:35:27.647Z,26.13
2023-04-08T08:37:54.113Z,21.33
2023-04-08T08:40:20.715Z,25.27
2023-04-08T08:42:52.378Z,15.63
2023-04-08T08:45:21.973Z,15.77
2023-04-08T08:47:50.826Z,15.20
2023-04-08T08:50:17.784Z,13.57
2023-04-08T08:52:53.562Z,12.33
2023-04-08T08:55:41.396Z,13.77
2023-04-08T08:58:10.217Z,13.07
2023-04-08T09:00:38.727Z,12.73
2023-04-08T09:03:23.959Z,11.70
2023-04-08T09:05:51.596Z,10.20
2023-04-08T09:08:32.443Z,10.63
2023-04-08T09:11:16.298Z,11.67
2023-04-08T09:13:43.839Z,9.37
2023-04-08T09:16:12.365Z,13.50
2023-04-08T09:19:00.492Z,13.87
2023-04-08T09:21:32.950Z,12.00
2023-04-08T09:23:59.548Z,11.50
2023-04-08T09:26:27.429Z,11.03
2023-04-08T09:29:18.040Z,10.63
2023-04-08T09:31:56.587Z,9.70
2023-04-08T09:34:23.983Z,10.83
2023-04-08T09:36:51.520Z,12.50
2023-04-08T09:39:18.240Z,10.43
2023-04-08T09:41:45.716Z,10.03
2023-04-08T09:44:12.531Z,11.37
2023-04-08T09:46:51.518Z,8.73
2023-04-08T09:49:33.542Z,8.97
2023-04-08T09:52:16.105Z,8.53
2023-04-08T09:54:51.744Z,9.30
2023-04-08T09:57:26.649Z,10.27
2023-04-08T10:00:26.735Z,9.10
2023-04-08T10:02:57.330Z,10.60
2023-04-08T10:05:25.128Z,10.37
2023-04-08T10:07:51.949Z,13.67
2023-04-08T10:10:18.962Z,10.73
2023-04-08T10:12:45.527Z,11.40
2023-04-08T10:15:25.784Z,11.17
2023-04-08T10:18:07.075Z,13.57
2023-04-08T10:20:36.631Z,10.37
2023-04-08T10:23:07.933Z,13.50
2023-04-08T10:25:38.736Z,11.30
2023-04-08T10:28:11.340Z,12.00
2023-04-08T10:30:47.377Z,12.40
2023-04-08T10:33:45.977Z,11.63
2023-04-08T10:36:13.421Z,12.57
2023-04-08T10:38:41.318Z,11.30
2023-04-08T10:41:08.407Z,11.73
2023-04-08T10:43:35.746Z,11.63
2023-04-08T10:46:02.887Z,11.33
2023-04-08T10:48:29.664Z,10.00
2023-04-08T10:51:00.962Z,13.03
2023-04-08T10:53:32.307Z,12.23
2023-04-08T10:56:17.739Z,13.00
2023-04-08T10:58:51.971Z,13.80
2023-04-08T11:01:19.256Z,11.90
2023-04-08T11:03:45.899Z,12.37
2023-04-08T11:06:12.572Z,10.70
2023-04-08T11:08:39.125Z,12.80
2023-04-08T11:11:10.993Z,15.17
2023-04-08T11:13:51.131Z,12.47
2023-04-08T11:16:23.640Z,16.93
2023-04-08T11:18:50.989Z,14.47
2023-04-08T11:21:17.480Z,13.13
2023-04-08T11:23:44.049Z,12.90
2023-04-08T11:26:11.226Z,13.37
2023-04-08T11:28:37.871Z,11.57
2023-04-08T11:31:04.490Z,13.37
2023-04-08T11:33:31.894Z,12.10
2023-04-08T11:36:01.728Z,14.03
2023-04-08T11:38:28.531Z,12.37
2023-04-08T11:40:59.052Z,11.33
2023-04-08T11:43:26.368Z,9.83
2023-04-08T11:45:52.888Z,12.13
2023-04-08T11:48:19.426Z,11.73
2023-04-08T11:50:45.915Z,14.63
2023-04-08T11:53:25.245Z,13.17
2023-04-08T11:55:51.845Z,13.17
2023-04-08T11:58:18.396Z,13.67
2023-04-08T12:00:45.753Z,11.73
2023-04-08T12:03:13.573Z,10.80
2023-04-08T12:05:40.734Z,12.27
2023-04-08T12:08:07.194Z,12.43
2023-04-08T12:10:33.681Z,11.67
2023-04-08T12:13:00.352Z,11.60
2023-04-08T12:15:26.947Z,11.57
2023-04-08T12:17:53.450Z,15.40
2023-04-08T12:20:19.982Z,11.07
2023-04-08T12:22:46.917Z,11.43
2023-04-08T12:25:13.457Z,11.40
2023-04-08T12:27:39.963Z,17.17
2023-04-08T12:30:07.356Z,13.53
2023-04-08T12:32:34.789Z,10.97
2023-04-08T12:35:01.343Z,15.77
2023-04-08T12:37:28.027Z,11.63
2023-04-08T12:39:54.571Z,13.37
2023-04-08T12:42:21.105Z,12.17
2023-04-08T12:44:49.706Z,12.03
2023-04-08T12:47:16.408Z,11.80
2023-04-08T12:49:49.482Z,11.37
2023-04-08T12:52:17.767Z,12.83
2023-04-08T12:54:45.315Z,12.70
2023-04-08T12:57:13.036Z,14.53
2023-04-08T12:59:40.208Z,12.73
2023-04-08T13:02:08.142Z,11.10
2023-04-08T13:04:35.038Z,11.60
2023-04-08T13:07:01.580Z,12.50
2023-04-08T13:09:28.392Z,13.73
2023-04-08T13:11:54.888Z,11.80
2023-04-08T13:14:21.349Z,13.50
2023-04-08T13:16:48.021Z,11.93
2023-04-08T13:19:14.875Z,10.80
2023-04-08T13:21:41.607Z,10.70
2023-04-08T13:24:08.069Z,11.77
2023-04-08T13:26:34.563Z,12.53
2023-04-08T13:29:01.285Z,11.00
2023-04-08T13:31:28.063Z,12.17
2023-04-08T13:33:57.608Z,12.43
2023-04-08T13:36:24.578Z,11.57
2023-04-08T13:38:52.093Z,11.60
2023-04-08T13:41:21.190Z,12.60
2023-04-08T13:43:47.671Z,18.00
2023-04-08T13:46:14.183Z,13.73
2023-04-08T13:48:41.305Z,11.97
2023-04-08T13:51:07.837Z,11.23
2023-04-08T13:53:34.307Z,11.23
2023-04-08T13:56:00.929Z,11.20
2023-04-08T13:58:27.466Z,11.60
2023-04-08T14:00:53.993Z,14.53
2023-04-08T14:03:20.889Z,12.10
2023-04-08T14:05:47.653Z,12.67
2023-04-08T14:08:14.111Z,11.60
2023-04-08T14:10:42.100Z,11.30
2023-04-08T14:13:09.211Z,13.97
2023-04-08T14:15:35.803Z,10.90
2023-04-08T14:18:02.318Z,12.07
2023-04-08T14:20:28.920Z,12.50
2023-04-08T14:22:56.795Z,13.13
2023-04-08T14:25:23.757Z,13.63
2023-04-08T14:27:58.046Z,11.87
2023-04-08T14:30:26.915Z,11.77
2023-04-08T14:32:53.959Z,12.23
2023-04-08T14:35:21.845Z,11.63
2023-04-08T14:37:48.406Z,13.60
2023-04-08T14:40:14.914Z,13.40
2023-04-08T14:42:41.570Z,10.97
2023-04-08T14:45:08.677Z,14.00
2023-04-08T14:47:35.242Z,13.00
2023-04-08T14:50:02.064Z,15.20
2023-04-08T14:52:28.607Z,11.87
2023-04-08T14:54:55.080Z,12.37
2023-04-08T14:57:21.622Z,10.90
2023-04-08T14:59:48.189Z,11.83
2023-04-08T15:02:14.789Z,13.00
2023-04-08T15:04:41.843Z,12.03
2023-04-08T15:07:08.966Z,11.83
2023-04-08T15:09:35.463Z,15.23
2023-04-08T15:12:02.933Z,12.90
2023-04-08T15:14:29.490Z,11.67
2023-04-08T15:16:56.293Z,11.90
2023-04-08T15:19:22.878Z,12.43
2023-04-08T15:21:49.689Z,12.30
2023-04-08T15:24:16.937Z,12.07
2023-04-08T15:26:43.821Z,13.27
2023-04-08T15:29:10.306Z,14.50
2023-04-08T15:31:36.896Z,11.03
2023-04-08T15:34:03.730Z,14.33
2023-04-08T15:36:30.679Z,14.40
2023-04-08T15:38:57.195Z,11.33
2023-04-08T15:41:23.758Z,16.47
2023-04-08T15:43:50.307Z,11.20
2023-04-08T15:46:21.039Z,21.27
2023-04-08T15:48:48.233Z,20.23
2023-04-08T15:51:14.974Z,14.17
2023-04-08T15:53:41.875Z,12.07
2023-04-08T15:56:18.221Z,20.93
2023-04-08T15:58:45.772Z,11.93
2023-04-08T16:01:12.567Z,11.87
2023-04-08T16:03:39.333Z,11.17
2023-04-08T16:06:06.248Z,11.07
2023-04-08T16:08:33.981Z,11.23
2023-04-08T16:11:02.507Z,13.27
2023-04-08T16:13:30.037Z,10.60
2023-04-08T16:15:58.214Z,11.37
2023-04-08T16:18:25.213Z,12.03
2023-04-08T16:20:51.755Z,11.17
2023-04-08T16:23:18.271Z,13.20
2023-04-08T16:25:45.074Z,12.83
2023-04-08T16:28:11.860Z,10.97
2023-04-08T16:30:38.836Z,10.87
2023-04-08T16:33:06.152Z,12.77
2023-04-08T16:35:32.842Z,11.10
2023-04-08T16:37:59.541Z,11.70
2023-04-08T16:40:26.253Z,12.47
2023-04-08T16:42:52.931Z,11.00
2023-04-08T16:45:19.536Z,10.60
2023-04-08T16:47:46.174Z,9.20
2023-04-08T16:50:12.759Z,11.83
2023-04-08T16:52:39.375Z,10.47
2023-04-08T16:55:06.630Z,12.00
2023-04-08T16:57:33.131Z,9.90
2023-04-08T16:59:59.611Z,9.13
2023-04-08T17:02:26.502Z,11.50
2023-04-08T17:04:53.103Z,8.73
2023-04-08T17:07:19.672Z,9.13
2023-04-08T17:09:49.741Z,7.97
2023-04-08T17:12:16.577Z,7.33
2023-04-08T17:14:43.138Z,8.57
2023-04-08T17:17:09.590Z,9.27
2023-04-08T17:19:36.678Z,8.13
2023-04-08T17:22:03.159Z,12.53
2023-04-08T17:24:29.739Z,12.73
2023-04-08T17:27:00.045Z,10.37
2023-04-08T17:29:26.499Z,12.20
2023-04-08T17:31:53.192Z,14.53
2023-04-08T17:34:19.891Z,9.03
2023-04-08T17:36:46.405Z,8.37
2023-04-08T17:39:12.918Z,9.87
2023-04-08T17:41:41.299Z,9.53
2023-04-08T17:44:08.601Z,9.73
2023-04-08T17:46:35.441Z,9.83
2023-04-08T17:49:02.076Z,11.30
2023-04-08T17:51:30.194Z,9.97
2023-04-08T17:53:56.727Z,11.23
2023-04-08T17:56:23.623Z,10.70
2023-04-08T17:58:50.318Z,11.27
2023-04-08T18:01:17.114Z,10.80
2023-04-08T18:03:43.745Z,10.20
2023-04-08T18:06:10.492Z,12.27
2023-04-08T18:08:36.995Z,10.67
2023-04-08T18:11:06.608Z,9.93
2023-04-08T18:13:33.533Z,13.73
2023-04-08T18:15:59.982Z,14.00
2023-04-08T18:18:26.490Z,15.67
2023-04-08T18:20:52.984Z,15.20
2023-04-08T18:23:19.446Z,12.27
2023-04-08T18:25:46.891Z,11.20
2023-04-08T18:28:13.444Z,9.93
2023-04-08T18:30:39.962Z,9.67
2023-04-08T18:33:06.716Z,9.37
2023-04-08T18:35:33.185Z,10.70
2023-04-08T18:37:59.684Z,10.50
2023-04-08T18:40:26.352Z,11.90
2023-04-08T18:42:52.838Z,9.73
2023-04-08T18:45:19.277Z,10.43
2023-04-08T18:47:45.905Z,9.73
2023-04-08T18:50:12.519Z,11.90
2023-04-08T18:52:39.067Z,12.20
2023-04-08T18:55:05.847Z,13.20
2023-04-08T18:57:32.310Z,10.93
2023-04-08T18:59:58.839Z,12.73
2023-04-08T19:02:25.546Z,11.53
2023-04-08T19:04:52.182Z,12.97
2023-04-08T19:07:18.643Z,13.43
2023-04-08T19:09:45.139Z,13.07
2023-04-08T19:12:11.647Z,15.20
2023-04-08T19:14:38.260Z,17.40
2023-04-08T19:17:04.760Z,15.37
2023-04-08T19:19:31.573Z,17.77
2023-04-08T19:21:58.413Z,16.23
2023-04-08T19:24:24.977Z,18.73
2023-04-08T19:26:53.066Z,15.73
2023-04-08T19:29:22.920Z,18.37
2023-04-08T19:31:49.437Z,19.57
2023-04-08T19:34:16.009Z,19.00
2023-04-08T19:36:42.520Z,17.30
2023-04-08T19:39:09.000Z,19.87
2023-04-08T19:41:35.481Z,16.87
2023-04-08T19:44:02.137Z,16.47
2023-04-08T19:46:29.201Z,17.33
2023-04-08T19:48:58.175Z,19.13
2023-04-08T19:51:24.812Z,17.03
2023-04-08T19:53:53.264Z,18.10
2023-04-08T19:56:19.907Z,17.30
2023-04-08T19:58:46.612Z,16.77
2023-04-08T20:01:14.308Z,16.40
2023-04-08T20:03:42.231Z,17.50
2023-04-08T20:06:09.383Z,15.33
2023-04-08T20:08:36.657Z,13.27
2023-04-08T20:11:04.690Z,13.97
2023-04-08T20:13:31.312Z,13.87
2023-04-08T20:15:58.076Z,14.27
2023-04-08T20:18:24.607Z,14.07
2023-04-08T20:20:51.147Z,17.53
2023-04-08T20:23:17.663Z,21.17
2023-04-08T20:25:44.119Z,23.40
2023-04-08T20:28:10.641Z,21.83
2023-04-08T20:30:37.756Z,24.80
2023-04-08T20:33:04.375Z,25.37
2023-04-08T20:35:30.871Z,22.87
2023-04-08T20:37:57.405Z,24.93
2023-04-08T20:40:23.848Z,23.10
2023-04-08T20:42:50.322Z,23.67
2023-04-08T20:45:16.768Z,21.50
2023-04-08T20:47:46.003Z,23.37
2023-04-08T20:50:12.664Z,21.67
2023-04-08T20:52:39.500Z,23.20
2023-04-08T20:55:07.241Z,23.53
2023-04-08T20:57:33.738Z,24.07
2023-04-08T21:00:00.652Z,23.67
2023-04-08T21:02:27.320Z,24.67
2023-04-08T21:04:53.859Z,27.27
2023-04-08T21:07:20.326Z,26.37
2023-04-08T21:09:48.363Z,25.00
2023-04-08T21:12:14.820Z,24.10
2023-04-08T21:14:42.087Z,26.13
2023-04-08T21:17:10.154Z,24.43
2023-04-08T21:19:36.600Z,28.07
2023-04-08T21:22:03.148Z,28.07
2023-04-08T21:24:30.005Z,27.47
2023-04-08T21:26:57.640Z,26.07
2023-04-08T21:29:24.230Z,25.43
2023-04-08T21:31:50.962Z,25.87
2023-04-08T21:34:17.477Z,27.97
2023-04-08T21:36:43.941Z,27.57
2023-04-08T21:39:10.404Z,25.73
2023-04-08T21:41:36.898Z,26.53
2023-04-08T21:44:03.551Z,26.53
2023-04-08T21:46:30.147Z,26.87
2023-04-08T21:48:56.747Z,29.40
2023-04-08T21:51:23.185Z,32.53
2023-04-08T21:53:50.808Z,27.60
2023-04-08T21:56:17.468Z,31.33
2023-04-08T21:58:43.931Z,26.43
2023-04-08T22:01:10.398Z,33.83
2023-04-08T22:03:36.962Z,28.13
2023-04-08T22:06:03.659Z,27.30
2023-04-08T22:08:32.482Z,29.53
2023-04-08T22:10:59.006Z,30.97
2023-04-08T22:13:25.469Z,29.87
2023-04-08T22:15:51.894Z,31.80
2023-04-08T22:18:18.424Z,31.73
2023-04-08T22:20:44.913Z,36.07
2023-04-08T22:23:11.374Z,33.63
2023-04-08T22:25:37.838Z,40.17
2023-04-08T22:28:04.298Z,37.77
2023-04-08T22:30:31.000Z,47.77
2023-04-08T22:32:57.633Z,44.97
2023-04-08T22:35:24.193Z,42.83
2023-04-08T22:37:50.817Z,38.97
2023-04-08T22:40:17.984Z,41.93
2023-04-08T22:42:44.497Z,42.43
2023-04-08T22:45:11.452Z,45.93
2023-04-08T22:47:38.086Z,47.03
2023-04-08T22:50:05.461Z,48.63
2023-04-08T22:52:32.057Z,56.77
2023-04-08T22:54:58.703Z,48.20
2023-04-08T22:57:25.334Z,45.40
2023-04-08T22:59:52.039Z,47.07
2023-04-08T23:02:18.904Z,50.17
2023-04-08T23:04:46.176Z,50.53
2023-04-08T23:07:12.878Z,46.43
2023-04-08T23:09:39.399Z,49.57
2023-04-08T23:12:06.271Z,48.53
2023-04-08T23:14:32.784Z,47.67
2023-04-08T23:16:59.246Z,47.73
2023-04-08T23:19:25.968Z,51.40
2023-04-08T23:21:52.484Z,43.33
2023-04-08T23:24:19.039Z,53.73
2023-04-08T23:26:46.296Z,50.50
2023-04-08T23:29:13.105Z,50.13
2023-04-08T23:31:39.852Z,49.20
2023-04-08T23:34:06.627Z,46.57
2023-04-08T23:36:33.062Z,53.27
2023-04-08T23:38:59.529Z,62.20
2023-04-08T23:41:26.467Z,48.23
2023-04-08T23:43:52.986Z,65.73
2023-04-08T23:46:19.494Z,72.03
2023-04-08T23:48:45.998Z,83.30
2023-04-08T23:51:12.568Z,124.07
2023-04-08T23:53:40.092Z,125.20
2023-04-08T23:56:08.899Z,121.13
2023-04-08T23:58:35.977Z,189.23
